Time;durP1;ratioP1;P1;durP2;ratioP2;P2;SDS_P1;SDS_P2;PMS_P1;PMS_P2;Temp;Humidity;BMP_temperature;BMP_pressure;BME280_temperature;BME280_humidity;BME280_pressure;Samples;Min_cycle;Max_cycle;Signal;HPM_P1;HPM_P2
2024/01/23 00:00:28;;;;;;;;;15.67;13.00;;;;;;;;5044285;28;45412;-75
2024/01/23 00:02:53;;;;;;;;;12.00;10.67;;;;;;;;5061764;28;45410;-74
2024/01/23 00:05:18;;;;;;;;;15.00;13.33;;;;;;;;5044481;28;46189;-75
2024/01/23 00:07:43;;;;;;;;;13.00;12.00;;;;;;;;5062688;28;45312;-75
2024/01/23 00:10:09;;;;;;;;;7.33;7.00;;;;;;;;5062758;28;45410;-75
2024/01/23 00:12:34;;;;;;;;;8.33;8.33;;;;;;;;5063013;28;45458;-74
2024/01/23 00:14:59;;;;;;;;;9.00;8.33;;;;;;;;5062972;28;45374;-75
2024/01/23 00:17:25;;;;;;;;;10.00;8.33;;;;;;;;5044700;28;48196;-75
2024/01/23 00:19:50;;;;;;;;;7.33;6.00;;;;;;;;5044371;28;45426;-75
2024/01/23 00:22:15;;;;;;;;;8.67;5.00;;;;;;;;5062376;28;45386;-75
2024/01/23 00:24:40;;;;;;;;;4.00;4.00;;;;;;;;5044249;28;45833;-75
2024/01/23 00:27:05;;;;;;;;;6.67;4.67;;;;;;;;5062065;28;46460;-75
2024/01/23 00:29:33;;;;;;;;;2.33;1.33;;;;;;;;5044267;28;45822;-74
2024/01/23 00:31:58;;;;;;;;;4.33;4.33;;;;;;;;5062377;28;45470;-75
2024/01/23 00:34:23;;;;;;;;;8.33;6.00;;;;;;;;5061970;28;45586;-75
2024/01/23 00:36:48;;;;;;;;;8.67;7.33;;;;;;;;5062431;28;45370;-75
2024/01/23 00:39:13;;;;;;;;;7.33;6.00;;;;;;;;5062187;28;45368;-75
2024/01/23 00:41:39;;;;;;;;;5.33;5.33;;;;;;;;5062089;28;45243;-75
2024/01/23 00:44:04;;;;;;;;;4.00;4.00;;;;;;;;5062729;28;45425;-74
2024/01/23 00:46:30;;;;;;;;;8.00;6.00;;;;;;;;5043750;28;46617;-75
2024/01/23 00:48:55;;;;;;;;;4.67;3.00;;;;;;;;5043825;28;46070;-75
2024/01/23 00:51:20;;;;;;;;;7.00;5.33;;;;;;;;5061931;28;45248;-74
2024/01/23 00:53:45;;;;;;;;;6.33;4.67;;;;;;;;5061826;28;45187;-75
2024/01/23 00:56:10;;;;;;;;;4.00;3.67;;;;;;;;5061476;28;46290;-74
2024/01/23 00:58:35;;;;;;;;;4.00;4.00;;;;;;;;5043413;28;45922;-75
2024/01/23 01:01:00;;;;;;;;;7.00;4.67;;;;;;;;5061990;28;45255;-75
2024/01/23 01:03:26;;;;;;;;;5.33;5.00;;;;;;;;5061528;28;45254;-75
2024/01/23 01:05:51;;;;;;;;;4.33;3.00;;;;;;;;5043611;28;48474;-75
2024/01/23 01:08:16;;;;;;;;;4.00;3.00;;;;;;;;5061764;28;45164;-75
2024/01/23 01:10:41;;;;;;;;;4.67;4.67;;;;;;;;5061638;28;45414;-74
2024/01/23 01:13:07;;;;;;;;;4.67;3.00;;;;;;;;5062203;28;45426;-76
2024/01/23 01:15:32;;;;;;;;;5.33;4.67;;;;;;;;5061608;28;45962;-75
2024/01/23 01:17:57;;;;;;;;;3.00;3.00;;;;;;;;5061594;28;45211;-75
2024/01/23 01:20:22;;;;;;;;;4.33;4.00;;;;;;;;5043745;28;45262;-75
2024/01/23 01:22:47;;;;;;;;;4.00;3.33;;;;;;;;5061580;28;45228;-75
2024/01/23 01:25:13;;;;;;;;;2.00;1.00;;;;;;;;5061345;28;46254;-75
2024/01/23 01:27:38;;;;;;;;;4.00;4.00;;;;;;;;5043245;28;46040;-75
2024/01/23 01:30:04;;;;;;;;;5.00;3.00;;;;;;;;5042780;28;45870;-75
2024/01/23 01:32:29;;;;;;;;;1.00;1.00;;;;;;;;5061434;28;45475;-74
2024/01/23 01:34:55;;;;;;;;;4.00;2.67;;;;;;;;5043190;28;47358;-75
2024/01/23 01:37:20;;;;;;;;;2.00;1.67;;;;;;;;5061178;28;45295;-74
2024/01/23 01:39:45;;;;;;;;;2.00;2.00;;;;;;;;5042677;28;45439;-75
2024/01/23 01:42:11;;;;;;;;;2.33;2.00;;;;;;;;5060560;28;45466;-76
2024/01/23 01:44:36;;;;;;;;;4.00;3.00;;;;;;;;5060345;28;45408;-75
2024/01/23 01:47:01;;;;;;;;;1.33;1.33;;;;;;;;5060021;28;45270;-75
2024/01/23 01:49:27;;;;;;;;;6.00;4.33;;;;;;;;5061069;28;45342;-74
2024/01/23 01:51:52;;;;;;;;;2.00;2.00;;;;;;;;5061350;28;45323;-75
2024/01/23 01:54:19;;;;;;;;;1.33;1.33;;;;;;;;5060648;28;45383;-75
2024/01/23 01:56:44;;;;;;;;;1.67;1.67;;;;;;;;5060607;28;45434;-75
2024/01/23 01:59:10;;;;;;;;;2.00;2.00;;;;;;;;5061091;28;45347;-75
2024/01/23 02:01:35;;;;;;;;;1.00;1.00;;;;;;;;5042628;28;46043;-75
2024/01/23 02:04:00;;;;;;;;;4.67;3.67;;;;;;;;5041634;28;47246;-75
2024/01/23 02:06:26;;;;;;;;;3.00;3.00;;;;;;;;5060894;28;45316;-75
2024/01/23 02:08:51;;;;;;;;;2.00;2.00;;;;;;;;5060821;28;45471;-75
2024/01/23 02:11:16;;;;;;;;;3.00;3.00;;;;;;;;5041679;28;46029;-74
2024/01/23 02:13:42;;;;;;;;;1.67;1.67;;;;;;;;5060662;28;45217;-74
2024/01/23 02:16:07;;;;;;;;;3.67;3.00;;;;;;;;5042827;28;45319;-75
2024/01/23 02:18:32;;;;;;;;;2.00;2.00;;;;;;;;5042619;28;45323;-75
2024/01/23 02:20:58;;;;;;;;;3.00;3.00;;;;;;;;5042386;28;46974;-75
2024/01/23 02:23:29;;;;;;;;;2.67;2.00;;;;;;;;5060581;28;45201;-76
2024/01/23 02:25:54;;;;;;;;;6.33;2.67;;;;;;;;5042294;28;45883;-75
2024/01/23 02:28:20;;;;;;;;;4.00;3.00;;;;;;;;5060448;28;45240;-75
2024/01/23 02:30:45;;;;;;;;;5.33;3.00;;;;;;;;5060934;28;45270;-75
2024/01/23 02:33:10;;;;;;;;;4.00;3.67;;;;;;;;5060562;28;46170;-75
2024/01/23 02:35:36;;;;;;;;;4.00;3.33;;;;;;;;5060381;28;45275;-74
2024/01/23 02:38:01;;;;;;;;;4.67;4.67;;;;;;;;5042508;28;45265;-75
2024/01/23 02:40:26;;;;;;;;;2.00;2.00;;;;;;;;5060378;28;45590;-75
2024/01/23 02:42:52;;;;;;;;;3.00;2.67;;;;;;;;5060369;28;45703;-76
2024/01/23 02:45:17;;;;;;;;;3.00;2.00;;;;;;;;5061273;28;45226;-75
2024/01/23 02:47:42;;;;;;;;;4.00;3.00;;;;;;;;5060424;28;45575;-75
2024/01/23 02:50:08;;;;;;;;;3.00;3.00;;;;;;;;5042061;28;45949;-75
2024/01/23 02:52:34;;;;;;;;;7.33;3.33;;;;;;;;5042116;28;46941;-75
2024/01/23 02:54:59;;;;;;;;;4.33;3.00;;;;;;;;5041390;28;45534;-75
2024/01/23 02:57:25;;;;;;;;;3.67;3.00;;;;;;;;5060264;28;45467;-75
2024/01/23 02:59:51;;;;;;;;;3.00;2.67;;;;;;;;5041963;28;45412;-75
2024/01/23 03:02:16;;;;;;;;;1.00;1.00;;;;;;;;5059683;28;46160;-74
2024/01/23 03:04:41;;;;;;;;;4.33;4.00;;;;;;;;5059518;28;45379;-75
2024/01/23 03:07:07;;;;;;;;;3.00;3.00;;;;;;;;5060005;28;45280;-74
2024/01/23 03:09:32;;;;;;;;;2.33;2.33;;;;;;;;5059649;28;45270;-74
2024/01/23 03:11:58;;;;;;;;;3.00;3.00;;;;;;;;5060090;28;45402;-76
2024/01/23 03:14:23;;;;;;;;;3.00;3.00;;;;;;;;5041951;28;45317;-75
2024/01/23 03:16:48;;;;;;;;;4.00;2.00;;;;;;;;5061224;28;45600;-75
2024/01/23 03:19:13;;;;;;;;;4.00;4.00;;;;;;;;5059841;28;45548;-74
2024/01/23 03:21:39;;;;;;;;;2.00;2.00;;;;;;;;5059870;28;45257;-75
2024/01/23 03:24:04;;;;;;;;;3.67;3.00;;;;;;;;5058736;28;45367;-74
2024/01/23 03:26:29;;;;;;;;;3.00;3.00;;;;;;;;5059686;28;45239;-75
2024/01/23 03:28:54;;;;;;;;;2.00;2.00;;;;;;;;5060116;28;45299;-75
2024/01/23 03:31:20;;;;;;;;;5.00;2.67;;;;;;;;5041273;28;48152;-75
2024/01/23 03:33:46;;;;;;;;;3.00;3.00;;;;;;;;5059466;28;45295;-74
2024/01/23 03:36:11;;;;;;;;;3.00;2.00;;;;;;;;5041268;28;45396;-75
2024/01/23 03:38:37;;;;;;;;;3.00;3.00;;;;;;;;5059015;28;45300;-75
2024/01/23 03:41:02;;;;;;;;;7.00;5.00;;;;;;;;5040889;28;48242;-75
2024/01/23 03:43:27;;;;;;;;;3.00;3.00;;;;;;;;5041306;28;45277;-74
2024/01/23 03:45:52;;;;;;;;;4.00;3.00;;;;;;;;5041441;28;45274;-75
2024/01/23 03:48:18;;;;;;;;;3.00;2.00;;;;;;;;5059287;28;45271;-76
2024/01/23 03:50:44;;;;;;;;;4.00;3.33;;;;;;;;5041302;28;47109;-76
2024/01/23 03:53:09;;;;;;;;;0.33;0.33;;;;;;;;5059185;28;45431;-75
2024/01/23 03:55:34;;;;;;;;;3.33;2.33;;;;;;;;5040721;28;45315;-75
2024/01/23 03:57:59;;;;;;;;;3.67;2.67;;;;;;;;5059305;28;45289;-75
2024/01/23 04:00:25;;;;;;;;;5.00;3.33;;;;;;;;5059066;28;46201;-74
2024/01/23 04:02:50;;;;;;;;;3.33;3.33;;;;;;;;5058910;28;45297;-74
2024/01/23 04:05:15;;;;;;;;;3.00;3.00;;;;;;;;5040732;28;45359;-75
2024/01/23 04:07:41;;;;;;;;;4.67;3.00;;;;;;;;5040635;28;46331;-75
2024/01/23 04:10:06;;;;;;;;;3.33;3.00;;;;;;;;5058741;28;45432;-75
2024/01/23 04:12:31;;;;;;;;;5.00;3.00;;;;;;;;5040897;28;45347;-75
2024/01/23 04:14:58;;;;;;;;;5.00;3.67;;;;;;;;5041204;28;45448;-75
2024/01/23 04:17:23;;;;;;;;;4.00;4.00;;;;;;;;5058826;28;45330;-75
2024/01/23 04:19:49;;;;;;;;;3.33;2.33;;;;;;;;5040287;28;47277;-75
2024/01/23 04:22:14;;;;;;;;;4.00;2.00;;;;;;;;5058646;28;45288;-74
2024/01/23 04:24:40;;;;;;;;;5.00;4.00;;;;;;;;5040851;28;45460;-75
2024/01/23 04:27:05;;;;;;;;;4.33;2.00;;;;;;;;5058773;28;45231;-75
2024/01/23 04:29:31;;;;;;;;;3.00;3.00;;;;;;;;5058650;28;46240;-75
2024/01/23 04:31:56;;;;;;;;;4.00;3.33;;;;;;;;5058731;28;45296;-74
2024/01/23 04:34:21;;;;;;;;;3.00;3.00;;;;;;;;5060124;28;45218;-73
2024/01/23 04:36:47;;;;;;;;;4.00;3.00;;;;;;;;5062174;28;45209;-74
2024/01/23 04:39:13;;;;;;;;;6.33;3.33;;;;;;;;5061979;28;45892;-73
2024/01/23 04:41:41;;;;;;;;;6.67;4.00;;;;;;;;5061893;28;45275;-73
2024/01/23 04:44:06;;;;;;;;;6.67;3.00;;;;;;;;5062247;28;45355;-74
2024/01/23 04:46:31;;;;;;;;;7.00;5.00;;;;;;;;5061853;28;45311;-74
2024/01/23 04:48:56;;;;;;;;;5.00;4.00;;;;;;;;5061730;28;45389;-74
2024/01/23 04:51:21;;;;;;;;;6.00;4.00;;;;;;;;5062019;28;45342;-73
2024/01/23 04:53:47;;;;;;;;;4.00;3.00;;;;;;;;5062072;28;45426;-74
2024/01/23 04:56:13;;;;;;;;;9.00;7.00;;;;;;;;5061480;28;45418;-74
2024/01/23 04:58:41;;;;;;;;;6.67;5.00;;;;;;;;5061265;28;45320;-74
2024/01/23 05:01:06;;;;;;;;;4.00;3.33;;;;;;;;5061703;28;45345;-74
2024/01/23 05:03:31;;;;;;;;;5.00;4.00;;;;;;;;5061541;28;45255;-74
2024/01/23 05:05:58;;;;;;;;;8.67;6.00;;;;;;;;5061761;28;46373;-74
2024/01/23 05:08:23;;;;;;;;;10.33;7.33;;;;;;;;5061401;28;45236;-74
2024/01/23 05:10:48;;;;;;;;;5.33;4.67;;;;;;;;5061474;28;45387;-74
2024/01/23 05:13:13;;;;;;;;;10.67;7.33;;;;;;;;5043900;28;45521;-74
2024/01/23 05:15:39;;;;;;;;;8.33;6.67;;;;;;;;5061579;28;45423;-74
2024/01/23 05:18:07;;;;;;;;;8.00;6.67;;;;;;;;5061655;28;45825;-74
2024/01/23 05:20:32;;;;;;;;;9.33;7.00;;;;;;;;5061367;28;45277;-73
2024/01/23 05:22:57;;;;;;;;;8.33;6.00;;;;;;;;5043118;28;45289;-74
2024/01/23 05:25:24;;;;;;;;;9.33;7.00;;;;;;;;5061405;28;45430;-74
2024/01/23 05:27:49;;;;;;;;;8.67;5.67;;;;;;;;5061218;28;45287;-74
2024/01/23 05:30:14;;;;;;;;;6.00;5.00;;;;;;;;5043165;28;46212;-74
2024/01/23 05:32:40;;;;;;;;;13.00;8.00;;;;;;;;5061712;28;45267;-73
2024/01/23 05:35:07;;;;;;;;;11.33;8.67;;;;;;;;5042465;28;47283;-74
2024/01/23 05:37:32;;;;;;;;;7.00;5.00;;;;;;;;5061148;28;45507;-74
2024/01/23 05:39:57;;;;;;;;;8.67;7.33;;;;;;;;5060901;28;45295;-74
2024/01/23 05:42:22;;;;;;;;;9.00;7.67;;;;;;;;5043095;28;45212;-74
2024/01/23 05:44:47;;;;;;;;;8.33;8.00;;;;;;;;5061029;28;45167;-75
2024/01/23 05:47:13;;;;;;;;;8.67;7.33;;;;;;;;5060145;28;46448;-74
2024/01/23 05:49:38;;;;;;;;;7.00;6.33;;;;;;;;5042675;28;46121;-75
2024/01/23 05:52:03;;;;;;;;;8.00;7.00;;;;;;;;5061036;28;45232;-75
2024/01/23 05:54:28;;;;;;;;;7.33;6.00;;;;;;;;5060493;28;45197;-75
2024/01/23 05:56:53;;;;;;;;;10.33;6.33;;;;;;;;5056736;28;46077;-74
2024/01/23 05:59:18;;;;;;;;;7.33;6.33;;;;;;;;5052108;28;45233;-74
2024/01/23 06:01:44;;;;;;;;;7.00;5.00;;;;;;;;5042550;28;45289;-74
2024/01/23 06:04:09;;;;;;;;;4.00;4.00;;;;;;;;5041364;28;46407;-75
2024/01/23 06:06:41;;;;;;;;;8.00;8.00;;;;;;;;5041635;28;47072;-75
2024/01/23 06:09:07;;;;;;;;;1.00;1.00;;;;;;;;5061075;28;45444;-74
2024/01/23 06:11:32;;;;;;;;;9.67;7.00;;;;;;;;5042841;28;45260;-74
2024/01/23 06:13:57;;;;;;;;;7.00;6.00;;;;;;;;5060732;28;45208;-74
2024/01/23 06:16:22;;;;;;;;;6.33;6.00;;;;;;;;5060641;28;45295;-74
2024/01/23 06:18:48;;;;;;;;;7.33;6.00;;;;;;;;5060261;28;45335;-74
2024/01/23 06:21:13;;;;;;;;;9.00;5.33;;;;;;;;5059153;28;45435;-73
2024/01/23 06:23:41;;;;;;;;;4.00;3.67;;;;;;;;5041372;28;45360;-74
2024/01/23 06:26:06;;;;;;;;;7.33;5.33;;;;;;;;5060064;28;46304;-74
2024/01/23 06:28:31;;;;;;;;;7.33;6.67;;;;;;;;5059989;28;45529;-74
2024/01/23 06:30:56;;;;;;;;;7.67;6.67;;;;;;;;5059900;28;45302;-73
2024/01/23 06:33:22;;;;;;;;;5.00;5.00;;;;;;;;5059908;28;45335;-73
2024/01/23 06:35:47;;;;;;;;;8.67;8.67;;;;;;;;5041909;28;47683;-74
2024/01/23 06:38:12;;;;;;;;;8.67;7.33;;;;;;;;5060195;28;45279;-74
2024/01/23 06:40:37;;;;;;;;;7.00;6.67;;;;;;;;5060049;28;45380;-73
2024/01/23 06:43:02;;;;;;;;;7.67;6.67;;;;;;;;5060012;28;45536;-74
2024/01/23 06:45:28;;;;;;;;;10.67;8.00;;;;;;;;5059964;28;45346;-73
2024/01/23 06:47:53;;;;;;;;;6.33;5.67;;;;;;;;5059892;28;45312;-74
2024/01/23 06:50:18;;;;;;;;;7.00;6.00;;;;;;;;5060109;28;45318;-73
2024/01/23 06:52:43;;;;;;;;;8.00;7.00;;;;;;;;5059708;28;45296;-74
2024/01/23 06:55:09;;;;;;;;;6.33;6.00;;;;;;;;5059401;28;46114;-73
2024/01/23 06:57:34;;;;;;;;;8.67;7.67;;;;;;;;5059617;28;45437;-73
2024/01/23 06:59:59;;;;;;;;;6.00;5.00;;;;;;;;5060130;28;45528;-74
2024/01/23 07:02:24;;;;;;;;;8.33;7.33;;;;;;;;5059799;28;45502;-73
2024/01/23 07:04:49;;;;;;;;;5.67;5.67;;;;;;;;5058900;28;45213;-73
2024/01/23 07:07:15;;;;;;;;;8.33;5.00;;;;;;;;5059296;28;45307;-73
2024/01/23 07:09:40;;;;;;;;;6.33;5.33;;;;;;;;5040618;28;45393;-74
2024/01/23 07:12:05;;;;;;;;;6.67;5.00;;;;;;;;5059703;28;45277;-73
2024/01/23 07:14:30;;;;;;;;;7.00;5.00;;;;;;;;5041325;28;47285;-73
2024/01/23 07:16:55;;;;;;;;;7.00;6.00;;;;;;;;5059573;28;45338;-73
2024/01/23 07:19:21;;;;;;;;;9.00;7.00;;;;;;;;5059498;28;45241;-73
2024/01/23 07:21:46;;;;;;;;;6.00;5.00;;;;;;;;5047784;28;47255;-73
2024/01/23 07:24:11;;;;;;;;;4.67;2.33;;;;;;;;5059410;28;45371;-73
2024/01/23 07:26:36;;;;;;;;;8.67;5.00;;;;;;;;5059058;28;45270;-73
2024/01/23 07:29:03;;;;;;;;;6.33;6.00;;;;;;;;5059535;28;45288;-73
2024/01/23 07:31:29;;;;;;;;;7.00;7.00;;;;;;;;5041230;28;46520;-73
2024/01/23 07:33:54;;;;;;;;;8.67;7.00;;;;;;;;5059080;28;46496;-73
2024/01/23 07:36:19;;;;;;;;;9.33;7.33;;;;;;;;5059246;28;45438;-74
2024/01/23 07:38:44;;;;;;;;;9.00;7.67;;;;;;;;5041212;28;45369;-74
2024/01/23 07:41:09;;;;;;;;;12.00;9.67;;;;;;;;5059052;28;45302;-73
2024/01/23 07:43:36;;;;;;;;;6.00;5.33;;;;;;;;5059167;28;46549;-74
2024/01/23 07:46:01;;;;;;;;;4.67;3.67;;;;;;;;5059394;28;45319;-74
2024/01/23 07:48:27;;;;;;;;;7.00;5.33;;;;;;;;5059201;28;45430;-74
2024/01/23 07:50:52;;;;;;;;;4.00;4.00;;;;;;;;5040988;28;47267;-74
2024/01/23 07:53:17;;;;;;;;;11.00;7.33;;;;;;;;5058999;28;45418;-73
2024/01/23 07:55:43;;;;;;;;;8.00;7.00;;;;;;;;5040446;28;45317;-74
2024/01/23 07:58:12;;;;;;;;;7.67;6.33;;;;;;;;5040836;28;45876;-74
2024/01/23 08:00:37;;;;;;;;;8.33;8.00;;;;;;;;5040794;28;46965;-74
2024/01/23 08:03:03;;;;;;;;;8.33;8.00;;;;;;;;5058874;28;45787;-74
2024/01/23 08:05:29;;;;;;;;;14.00;10.67;;;;;;;;5040499;28;45554;-75
2024/01/23 08:07:54;;;;;;;;;13.67;11.00;;;;;;;;5058968;28;45347;-73
2024/01/23 08:10:21;;;;;;;;;10.33;8.67;;;;;;;;5061540;28;45435;-74
2024/01/23 08:12:46;;;;;;;;;14.67;11.33;;;;;;;;5044747;28;48521;-74
2024/01/23 08:15:11;;;;;;;;;9.00;8.00;;;;;;;;5062257;28;45438;-74
2024/01/23 08:17:36;;;;;;;;;7.00;6.33;;;;;;;;5062566;28;45328;-74
2024/01/23 08:20:01;;;;;;;;;7.67;7.67;;;;;;;;5062073;28;45426;-75
2024/01/23 08:22:26;;;;;;;;;10.00;8.33;;;;;;;;5043733;28;47726;-75
2024/01/23 08:24:52;;;;;;;;;7.67;5.67;;;;;;;;5043464;28;45284;-77
2024/01/23 08:27:17;;;;;;;;;14.00;10.33;;;;;;;;5062200;28;45274;-77
2024/01/23 08:29:42;;;;;;;;;12.33;10.33;;;;;;;;5062007;28;45387;-74
2024/01/23 08:32:07;;;;;;;;;10.00;6.67;;;;;;;;5061823;28;46026;-74
2024/01/23 08:34:33;;;;;;;;;8.00;6.00;;;;;;;;5062027;28;45453;-77
2024/01/23 08:36:58;;;;;;;;;8.00;7.00;;;;;;;;5062341;28;45383;-77
2024/01/23 08:39:23;;;;;;;;;7.33;7.00;;;;;;;;5061957;28;45497;-74
2024/01/23 08:41:48;;;;;;;;;6.67;6.67;;;;;;;;5061986;28;45367;-74
2024/01/23 08:44:13;;;;;;;;;5.00;5.00;;;;;;;;5061913;28;45363;-74
2024/01/23 08:46:39;;;;;;;;;7.00;6.00;;;;;;;;5043904;28;45308;-75
2024/01/23 08:49:04;;;;;;;;;6.33;5.00;;;;;;;;5061841;28;45531;-75
2024/01/23 08:51:29;;;;;;;;;8.67;7.67;;;;;;;;5043360;28;47500;-75
2024/01/23 08:53:55;;;;;;;;;7.00;7.00;;;;;;;;5061588;28;45360;-77
2024/01/23 08:56:24;;;;;;;;;7.00;5.33;;;;;;;;5061676;28;45272;-75
2024/01/23 08:58:50;;;;;;;;;6.33;6.33;;;;;;;;5067873;28;45518;-77
2024/01/23 09:01:16;;;;;;;;;9.33;4.33;;;;;;;;5078472;28;48324;-76
2024/01/23 09:03:42;;;;;;;;;8.00;6.33;;;;;;;;5059410;28;45700;-77
2024/01/23 09:06:09;;;;;;;;;9.00;6.67;;;;;;;;5052101;28;45403;-77
2024/01/23 09:08:34;;;;;;;;;7.33;7.33;;;;;;;;5060814;28;45519;-77
2024/01/23 09:11:00;;;;;;;;;5.33;5.33;;;;;;;;5042497;28;47060;-76
2024/01/23 09:13:29;;;;;;;;;7.33;5.67;;;;;;;;5061192;28;45682;-76
2024/01/23 09:15:54;;;;;;;;;6.67;6.67;;;;;;;;5060999;28;45222;-76
2024/01/23 09:18:19;;;;;;;;;14.00;8.67;;;;;;;;5060792;28;45453;-77
2024/01/23 09:20:44;;;;;;;;;6.00;5.00;;;;;;;;5073313;28;45447;-76
2024/01/23 09:23:10;;;;;;;;;9.33;7.00;;;;;;;;5051938;28;46017;-76
2024/01/23 09:25:35;;;;;;;;;8.00;7.00;;;;;;;;5057333;28;45684;-76
2024/01/23 09:28:01;;;;;;;;;7.00;7.00;;;;;;;;5069913;28;45419;-76
2024/01/23 09:30:26;;;;;;;;;8.00;6.00;;;;;;;;5052818;28;46518;-76
2024/01/23 09:32:51;;;;;;;;;8.33;7.67;;;;;;;;5063095;28;45399;-76
2024/01/23 09:35:16;;;;;;;;;8.00;8.00;;;;;;;;5043369;28;45575;-76
2024/01/23 09:37:42;;;;;;;;;11.00;8.33;;;;;;;;5059211;28;46322;-76
2024/01/23 09:40:10;;;;;;;;;4.00;4.00;;;;;;;;5060500;28;46066;-77
2024/01/23 09:42:39;;;;;;;;;10.33;9.33;;;;;;;;5042188;28;45850;-77
2024/01/23 09:45:09;;;;;;;;;6.33;6.33;;;;;;;;5051973;28;45382;-76
2024/01/23 09:47:35;;;;;;;;;12.00;6.67;;;;;;;;5060103;28;45952;-77
2024/01/23 09:50:00;;;;;;;;;8.33;7.00;;;;;;;;5079450;28;45335;-77
2024/01/23 09:52:26;;;;;;;;;9.33;7.00;;;;;;;;5070379;28;45479;-76
2024/01/23 09:54:51;;;;;;;;;7.00;5.00;;;;;;;;5060252;28;45229;-77
2024/01/23 09:57:16;;;;;;;;;5.00;5.00;;;;;;;;5060131;28;45183;-76
2024/01/23 09:59:42;;;;;;;;;6.00;5.33;;;;;;;;5042336;28;46794;-75
2024/01/23 10:02:08;;;;;;;;;9.00;8.33;;;;;;;;5065183;28;45355;-76
2024/01/23 10:04:34;;;;;;;;;8.33;6.33;;;;;;;;5064726;28;45351;-76
2024/01/23 10:07:07;;;;;;;;;7.00;4.33;;;;;;;;5058819;28;46183;-76
2024/01/23 10:09:32;;;;;;;;;9.00;7.00;;;;;;;;5041423;28;47507;-76
2024/01/23 10:11:57;;;;;;;;;10.00;8.00;;;;;;;;5051351;28;46142;-77
2024/01/23 10:14:22;;;;;;;;;7.33;6.67;;;;;;;;5072747;28;45282;-76
2024/01/23 10:16:47;;;;;;;;;6.00;5.00;;;;;;;;5069321;28;45313;-76
2024/01/23 10:19:13;;;;;;;;;9.67;6.67;;;;;;;;5071402;27;45311;-78
2024/01/23 10:21:38;;;;;;;;;8.33;7.00;;;;;;;;5064917;28;45224;-78
2024/01/23 10:24:05;;;;;;;;;11.00;8.00;;;;;;;;5060266;28;45268;-77
2024/01/23 10:26:32;;;;;;;;;11.67;6.33;;;;;;;;5079807;28;45354;-76
2024/01/23 10:28:57;;;;;;;;;5.67;5.67;;;;;;;;5072891;28;45518;-77
2024/01/23 10:31:22;;;;;;;;;9.67;8.00;;;;;;;;5066388;28;45417;-79
2024/01/23 10:33:48;;;;;;;;;8.00;4.67;;;;;;;;5061006;28;45648;-77
2024/01/23 10:36:13;;;;;;;;;6.67;4.00;;;;;;;;5070606;28;45458;-77
2024/01/23 10:38:43;;;;;;;;;8.67;6.67;;;;;;;;5061165;28;47126;-76
2024/01/23 10:41:10;;;;;;;;;8.67;7.00;;;;;;;;5048492;28;45303;-77
2024/01/23 10:43:35;;;;;;;;;6.67;5.33;;;;;;;;5038390;28;45393;-77
2024/01/23 10:46:04;;;;;;;;;7.00;6.67;;;;;;;;5039202;28;45481;-77
2024/01/23 10:48:30;;;;;;;;;5.33;4.67;;;;;;;;5038760;28;45489;-77
2024/01/23 10:50:57;;;;;;;;;8.00;5.33;;;;;;;;5039443;28;45277;-77
2024/01/23 10:53:28;;;;;;;;;8.00;8.00;;;;;;;;5039134;28;45386;-78
2024/01/23 10:55:55;;;;;;;;;11.00;9.33;;;;;;;;5038869;28;45295;-80
2024/01/23 10:58:27;;;;;;;;;7.33;7.00;;;;;;;;5037309;28;47323;-76
2024/01/23 11:00:53;;;;;;;;;9.67;8.33;;;;;;;;5048584;28;45533;-77
2024/01/23 11:03:18;;;;;;;;;9.33;7.33;;;;;;;;5057787;27;45686;-79
2024/01/23 11:05:59;;;;;;;;;8.00;8.00;;;;;;;;5043661;28;47428;-78
2024/01/23 11:08:27;;;;;;;;;7.00;7.00;;;;;;;;5058847;28;45273;-77
2024/01/23 11:10:55;;;;;;;;;6.33;5.67;;;;;;;;5058375;28;45340;-78
2024/01/23 11:13:40;;;;;;;;;8.00;7.00;;;;;;;;5059325;28;45347;-78
2024/01/23 11:16:06;;;;;;;;;7.67;7.67;;;;;;;;5040850;28;47499;-78
2024/01/23 11:18:33;;;;;;;;;12.00;9.00;;;;;;;;5058569;28;46125;-78
2024/01/23 11:21:10;;;;;;;;;9.67;8.67;;;;;;;;5058819;28;45357;-80
2024/01/23 11:23:39;;;;;;;;;8.00;6.33;;;;;;;;5041056;28;45393;-80
2024/01/23 11:26:12;;;;;;;;;7.67;6.33;;;;;;;;5058969;28;45470;-83
2024/01/23 11:28:37;;;;;;;;;10.00;7.67;;;;;;;;5059195;28;45460;-81
2024/01/23 11:31:06;;;;;;;;;8.00;6.00;;;;;;;;5059315;28;45355;-79
2024/01/23 11:33:32;;;;;;;;;8.00;6.00;;;;;;;;5059397;28;45356;-80
2024/01/23 11:36:11;;;;;;;;;8.33;7.33;;;;;;;;5049928;28;45526;-78
2024/01/23 11:38:56;;;;;;;;;6.67;6.67;;;;;;;;5058968;28;46187;-77
2024/01/23 11:41:22;;;;;;;;;10.00;9.33;;;;;;;;5040533;28;45608;-80
2024/01/23 11:44:08;;;;;;;;;10.33;8.33;;;;;;;;5059817;28;45446;-78
2024/01/23 11:46:34;;;;;;;;;9.33;6.67;;;;;;;;5045074;28;45275;-76
2024/01/23 11:49:28;;;;;;;;;9.33;7.00;;;;;;;;5062440;28;45283;-80
2024/01/23 11:52:22;;;;;;;;;8.00;6.00;;;;;;;;5042979;28;45408;-78
2024/01/23 11:54:56;;;;;;;;;10.00;8.67;;;;;;;;5044067;28;45342;-80
2024/01/23 11:57:21;;;;;;;;;8.00;7.00;;;;;;;;5036280;28;47466;-80
2024/01/23 11:59:46;;;;;;;;;6.33;6.00;;;;;;;;5037239;28;48118;-80
2024/01/23 12:02:16;;;;;;;;;9.67;9.00;;;;;;;;5062079;28;45332;-79
2024/01/23 12:04:41;;;;;;;;;9.00;8.33;;;;;;;;5061941;28;45523;-77
2024/01/23 12:07:09;;;;;;;;;7.00;6.00;;;;;;;;5062328;28;45778;-78
2024/01/23 12:09:34;;;;;;;;;8.67;8.67;;;;;;;;5043701;28;46611;-78
2024/01/23 12:12:03;;;;;;;;;10.00;8.33;;;;;;;;5062420;28;45324;-77
2024/01/23 12:17:21;;;;;;;;;8.00;5.67;;;;;;;;5062249;28;45470;-76
2024/01/23 12:20:16;;;;;;;;;10.67;8.33;;;;;;;;5043476;28;47128;-76
2024/01/23 12:25:39;;;;;;;;;9.67;7.67;;;;;;;;5061970;28;45390;-77
2024/01/23 12:31:10;;;;;;;;;7.67;6.67;;;;;;;;5050826;28;46374;-78
2024/01/23 12:33:38;;;;;;;;;8.00;8.00;;;;;;;;5062267;28;45244;-80
2024/01/23 12:36:04;;;;;;;;;11.33;10.00;;;;;;;;5044082;28;45367;-77
2024/01/23 12:38:30;;;;;;;;;8.33;5.33;;;;;;;;5043708;28;47328;-78
2024/01/23 12:40:59;;;;;;;;;9.33;8.67;;;;;;;;5061524;28;46099;-77
2024/01/23 12:43:24;;;;;;;;;10.67;10.67;;;;;;;;5062043;28;45311;-79
2024/01/23 12:45:55;;;;;;;;;7.33;6.33;;;;;;;;5076252;28;45300;-79
2024/01/23 12:48:23;;;;;;;;;9.00;8.00;;;;;;;;5082143;28;45509;-78
2024/01/23 12:50:49;;;;;;;;;10.00;9.33;;;;;;;;5082569;27;45351;-80
2024/01/23 12:53:14;;;;;;;;;10.33;9.33;;;;;;;;5064046;28;46244;-81
2024/01/23 12:55:39;;;;;;;;;6.00;6.00;;;;;;;;5081612;28;45315;-80
2024/01/23 12:58:07;;;;;;;;;6.33;5.00;;;;;;;;5068072;28;45314;-81
2024/01/23 13:00:32;;;;;;;;;12.00;9.33;;;;;;;;5043809;28;45509;-80
2024/01/23 13:02:57;;;;;;;;;6.67;6.00;;;;;;;;5061785;28;45216;-81
2024/01/23 13:05:22;;;;;;;;;12.33;8.67;;;;;;;;5043519;28;45227;-81
2024/01/23 13:07:48;;;;;;;;;10.00;9.00;;;;;;;;5061615;28;45162;-81
2024/01/23 13:10:13;;;;;;;;;9.00;8.00;;;;;;;;5043204;28;47041;-81
2024/01/23 13:12:39;;;;;;;;;8.00;7.00;;;;;;;;5061534;28;45283;-82
2024/01/23 13:15:05;;;;;;;;;12.33;10.67;;;;;;;;5043894;28;45336;-82
2024/01/23 13:17:30;;;;;;;;;6.67;6.67;;;;;;;;5043480;28;45856;-81
2024/01/23 13:19:56;;;;;;;;;9.33;6.00;;;;;;;;5061463;28;45636;-81
2024/01/23 13:22:21;;;;;;;;;8.00;5.00;;;;;;;;5061353;28;45331;-84
2024/01/23 13:24:46;;;;;;;;;11.33;8.67;;;;;;;;5043429;28;45330;-80
2024/01/23 13:27:12;;;;;;;;;9.00;7.00;;;;;;;;5061616;28;45347;-80
2024/01/23 13:29:37;;;;;;;;;8.67;8.67;;;;;;;;5043498;28;47686;-81
2024/01/23 13:32:04;;;;;;;;;9.67;6.33;;;;;;;;5044244;28;45703;-81
2024/01/23 13:34:29;;;;;;;;;7.67;7.00;;;;;;;;5043452;28;45362;-80
2024/01/23 13:36:55;;;;;;;;;7.00;6.00;;;;;;;;5061815;28;45249;-80
2024/01/23 13:39:21;;;;;;;;;9.00;8.00;;;;;;;;5043279;28;48278;-81
2024/01/23 13:41:46;;;;;;;;;7.00;6.00;;;;;;;;5043247;28;45338;-81
2024/01/23 13:44:11;;;;;;;;;8.33;8.33;;;;;;;;5061295;28;45600;-82
2024/01/23 13:46:37;;;;;;;;;7.33;6.67;;;;;;;;5041984;28;47029;-79
2024/01/23 13:49:03;;;;;;;;;11.67;7.67;;;;;;;;5061212;28;45384;-80
2024/01/23 13:51:28;;;;;;;;;9.67;8.00;;;;;;;;5060854;28;45261;-81
2024/01/23 13:53:54;;;;;;;;;4.00;4.00;;;;;;;;5043269;28;45163;-81
2024/01/23 13:56:19;;;;;;;;;8.00;6.67;;;;;;;;5061039;28;45260;-80
2024/01/23 13:58:45;;;;;;;;;8.67;7.33;;;;;;;;5060689;28;45431;-81
2024/01/23 14:01:10;;;;;;;;;7.67;6.67;;;;;;;;5042705;28;46316;-80
2024/01/23 14:03:35;;;;;;;;;8.00;4.00;;;;;;;;5060261;28;45330;-79
2024/01/23 14:06:02;;;;;;;;;8.33;6.00;;;;;;;;5065598;28;45351;-81
2024/01/23 14:08:27;;;;;;;;;7.00;6.67;;;;;;;;5060674;28;47618;-81
2024/01/23 14:10:52;;;;;;;;;6.67;5.33;;;;;;;;5075423;28;45309;-81
2024/01/23 14:13:18;;;;;;;;;7.33;4.67;;;;;;;;5081360;28;45401;-79
2024/01/23 14:15:43;;;;;;;;;6.67;6.67;;;;;;;;5082314;28;45481;-79
2024/01/23 14:18:11;;;;;;;;;11.00;9.67;;;;;;;;5081132;28;46345;-81
2024/01/23 14:20:37;;;;;;;;;12.00;8.67;;;;;;;;5081322;28;45170;-80
2024/01/23 14:23:02;;;;;;;;;6.67;5.33;;;;;;;;5069763;28;45786;-81
2024/01/23 14:25:27;;;;;;;;;7.33;6.00;;;;;;;;5049609;27;46449;-81
2024/01/23 14:27:54;;;;;;;;;5.67;5.00;;;;;;;;5051638;28;47933;-82
2024/01/23 14:30:20;;;;;;;;;5.00;5.00;;;;;;;;5050231;28;45794;-81
2024/01/23 14:32:45;;;;;;;;;7.00;5.00;;;;;;;;5062976;28;45332;-81
2024/01/23 14:35:10;;;;;;;;;7.33;5.00;;;;;;;;5038625;28;46131;-82
2024/01/23 14:37:36;;;;;;;;;8.67;6.00;;;;;;;;5061789;28;45943;-81
2024/01/23 14:40:01;;;;;;;;;6.67;6.67;;;;;;;;5041165;28;45340;-82
2024/01/23 14:42:26;;;;;;;;;4.67;4.00;;;;;;;;5053467;28;45537;-82